• Join FlightAware (Why Join?)
  • Login
  • US Flag 
08:44PM EDT


 

Airport Tracker/Info


-or-


 

Live Flight TrackerFlight Track Log ✈ SKW6534 ✈ 26-Apr-2013 ✈ KDEN - KIDA

Flight Track Log - Related Links

Times and Time Zones

All times are in EDT time to prevent confusion due to time zone crossing. See the SKW6534 flight status page for this flight to view local times or setup timezone preferences in your user account.

Time Position Orientation Groundspeed Altitude Reporting Facility
EDT Latitude Longitude Course Direction KTS MPH feet Rate Location/Type
01:27PM 39.9333 -104.6833 348° North 205 236 7,400  Level Denver TRACON
01:29PM 40.0811 -104.6942 357° North 283 326 11,600 1,980 Climbing Denver Center
01:30PM 40.3105 -104.8148 347° North  Level FlightAware Approximate
01:30PM 40.1644 -104.7119 351° North 302 348 13,600  Level Denver Center
01:31PM 40.4256 -104.8530 346° North  Level FlightAware Approximate
01:31PM 40.2567 -104.7322 350° North 314 361 16,000  Level Denver Center
01:32PM 40.5409 -104.8903 348° North  Level FlightAware Approximate
01:32PM 40.3450 -104.7522 350° North 323 372 17,600  Level Denver Center
01:33PM 40.4428 -104.7753 350° North 335 386 19,300 1,260 Climbing Denver Center
01:34PM 40.5386 -104.7953 351° North 346 398 20,300 1,200 Climbing Denver Center
01:35PM 40.6447 -104.8219 349° North 361 415 21,800 1,260 Climbing Denver Center
01:36PM 40.7486 -104.8422 352° North 365 420 23,000 1,080 Climbing Denver Center
01:37PM 40.8375 -104.8750 344° North 364 419 24,100 1,080 Climbing Denver Center
01:38PM 40.9542 -104.9331 339° North 380 437 25,300 900 Climbing Denver Center
01:39PM 41.0503 -104.9797 340° North 387 445 26,000 840 Climbing Denver Center
01:40PM 41.1650 -105.0367 340° North 393 452 27,100 780 Climbing Denver Center
01:41PM 41.2642 -105.0836 340° North 396 456 27,700 660 Climbing Denver Center
01:42PM 41.3822 -105.1442 339° North 405 466 28,500 600 Climbing Denver Center
01:43PM 41.4836 -105.1958 339° North 407 468 29,000 480 Climbing Denver Center
01:44PM 41.5722 -105.2814 324° Northwest 420 483 29,500 480 Climbing Denver Center
01:45PM 41.6142 -105.4494 289° West 431 496 30,000 480 Climbing Denver Center
01:46PM 41.6483 -105.5958 287° West 431 496 30,500 480 Climbing Denver Center
01:47PM 41.6875 -105.7669 287° West 431 496 31,100 480 Climbing Denver Center
01:48PM 41.7208 -105.9122 287° West 429 494 31,500 420 Climbing Denver Center
01:49PM 41.7594 -106.0825 287° West 428 493 32,000 240 Climbing Denver Center
01:50PM 41.7919 -106.2300 287° West 431 496 32,000  Level Denver Center
01:51PM 41.8317 -106.4056 287° West 440 506 32,000  Level Denver Center
01:52PM 41.8667 -106.5628 287° West 440 506 32,000  Level Denver Center
01:53PM 41.8989 -106.7097 286° West 433 498 32,000  Level Denver Center
01:55PM 41.9353 -106.8792 286° West 426 490 32,000  Level Denver Center
01:56PM 41.9664 -107.0244 286° West 423 487 32,000  Level Denver Center
01:57PM 42.0028 -107.1925 286° West 422 486 32,000  Level Denver Center
01:58PM 42.0325 -107.3358 286° West 418 481 32,000  Level Denver Center
01:59PM 42.0908 -107.6014 287° West 422 486 32,000  Level Salt Lake Center
02:00PM 42.0992 -107.6478 284° West 420 483 32,000  Level Denver Center
02:00PM 42.1219 -107.7669 284° West 414 476 32,000  Level Salt Lake Center
02:01PM 42.1503 -107.9086 285° West 411 473 32,000  Level Salt Lake Center
02:03PM 42.1864 -108.0772 286° West 422 486 32,000  Level Salt Lake Center
02:04PM 42.2153 -108.2197 285° West 416 479 32,000  Level Salt Lake Center
02:05PM 42.2489 -108.3878 285° West 419 482 32,000  Level Salt Lake Center
02:06PM 42.2789 -108.5319 286° West 419 482 32,000  Level Salt Lake Center
02:07PM 42.3111 -108.6992 285° West 416 479 32,000  Level Salt Lake Center
02:08PM 42.3394 -108.8422 285° West 415 478 32,000  Level Salt Lake Center
02:09PM 42.3717 -109.0100 285° West 415 478 32,000  Level Salt Lake Center
02:10PM 42.3992 -109.1528 285° West 411 473 32,000  Level Salt Lake Center
02:11PM 42.4311 -109.3208 284° West 415 478 32,000  Level Salt Lake Center
02:12PM 42.4586 -109.4633 285° West 412 474 32,000  Level Salt Lake Center
02:13PM 42.4900 -109.6314 284° West 414 476 32,000  Level Salt Lake Center
02:14PM 42.5175 -109.7753 285° West 414 476 32,000  Level Salt Lake Center
02:15PM 42.5483 -109.9425 284° West 412 474 32,000  Level Salt Lake Center
02:16PM 42.5753 -110.0856 284° West 411 473 32,000  Level Salt Lake Center
02:17PM 42.6389 -110.2319 301° West 401 461 32,000  Level Salt Lake Center
02:18PM 42.6997 -110.3542 304° West 407 468 32,000 -540 Level Salt Lake Center
02:19PM 42.7694 -110.4961 304° West 406 467 31,000 -1,500 Descending Salt Lake Center
02:20PM 42.8331 -110.6231 304° West 414 476 29,000 -1,920 Descending Salt Lake Center
02:21PM 42.8947 -110.7478 304° West 414 476 27,100 -2,040 Descending Salt Lake Center
02:22PM 42.9681 -110.8983 304° West 424 488 24,800 -2,040 Descending Salt Lake Center
02:23PM 43.0306 -111.0283 303° West 426 490 22,900 -2,040 Descending Salt Lake Center
02:24PM 43.1017 -111.1778 303° West 420 483 20,700 -2,280 Descending Salt Lake Center
02:25PM 43.1633 -111.3064 303° West 408 470 18,200 -2,400 Descending Salt Lake Center
02:26PM 43.2278 -111.4411 303° West 395 455 15,800 -2,340 Descending Salt Lake Center
02:27PM 43.2825 -111.5553 303° West 387 445 13,400 -1,380 Descending Salt Lake Center
02:28PM 43.3403 -111.6814 302° West 370 426 13,000 -780 Descending Salt Lake Center
02:29PM 43.3906 -111.7636 310° West 327 376 11,800 -1,620 Descending Salt Lake Center
02:30PM 43.4633 -111.8239 329° Northwest 286 329 9,700 -2,040 Descending Salt Lake Center
02:31PM 43.5181 -111.8764 325° Northwest 268 308 7,700 -1,980 Descending Salt Lake Center